sensor_id;sensor_type;location;lat;lon;timestamp;pressure;altitude;pressure_sealevel;temperature;humidity
6208;BME280;3137;51.550;7.060;2022-11-30T00:01:10;101785.72;;;7.06;92.59
6208;BME280;3137;51.550;7.060;2022-11-30T00:03:37;101775.81;;;7.10;92.25
6208;BME280;3137;51.550;7.060;2022-11-30T00:06:05;101777.50;;;7.12;92.32
6208;BME280;3137;51.550;7.060;2022-11-30T00:08:32;101787.47;;;7.07;92.39
6208;BME280;3137;51.550;7.060;2022-11-30T00:10:58;101780.97;;;7.14;92.43
6208;BME280;3137;51.550;7.060;2022-11-30T00:13:25;101777.53;;;7.11;92.77
6208;BME280;3137;51.550;7.060;2022-11-30T00:15:51;101781.16;;;7.10;92.44
6208;BME280;3137;51.550;7.060;2022-11-30T00:18:18;101780.34;;;7.08;92.36
6208;BME280;3137;51.550;7.060;2022-11-30T00:20:44;101773.22;;;7.08;92.68
6208;BME280;3137;51.550;7.060;2022-11-30T00:23:10;101776.50;;;7.15;92.57
6208;BME280;3137;51.550;7.060;2022-11-30T00:25:37;101780.84;;;7.17;92.31
6208;BME280;3137;51.550;7.060;2022-11-30T00:28:03;101780.53;;;7.03;92.43
6208;BME280;3137;51.550;7.060;2022-11-30T00:30:30;101777.69;;;7.08;92.96
6208;BME280;3137;51.550;7.060;2022-11-30T00:32:57;101780.22;;;7.11;92.96
6208;BME280;3137;51.550;7.060;2022-11-30T00:35:23;101780.84;;;7.17;92.81
6208;BME280;3137;51.550;7.060;2022-11-30T00:37:50;101775.81;;;7.10;92.42
6208;BME280;3137;51.550;7.060;2022-11-30T00:40:16;101783.81;;;7.10;92.64
6208;BME280;3137;51.550;7.060;2022-11-30T00:42:42;101777.63;;;7.09;92.84
6208;BME280;3137;51.550;7.060;2022-11-30T00:45:09;101775.66;;;7.14;92.79
6208;BME280;3137;51.550;7.060;2022-11-30T00:47:35;101778.34;;;7.13;92.97
6208;BME280;3137;51.550;7.060;2022-11-30T00:50:04;101780.97;;;7.14;93.27
6208;BME280;3137;51.550;7.060;2022-11-30T00:52:31;101775.50;;;7.17;92.51
6208;BME280;3137;51.550;7.060;2022-11-30T00:54:57;101768.66;;;7.12;92.75
6208;BME280;3137;51.550;7.060;2022-11-30T00:57:29;101771.13;;;7.16;93.28
6208;BME280;3137;51.550;7.060;2022-11-30T00:59:55;101773.72;;;7.18;92.64
6208;BME280;3137;51.550;7.060;2022-11-30T01:02:21;101770.94;;;7.21;92.93
6208;BME280;3137;51.550;7.060;2022-11-30T01:04:48;101776.38;;;7.18;92.88
6208;BME280;3137;51.550;7.060;2022-11-30T01:07:15;101771.66;;;7.24;92.74
6208;BME280;3137;51.550;7.060;2022-11-30T01:09:41;101780.69;;;7.20;92.78
6208;BME280;3137;51.550;7.060;2022-11-30T01:12:07;101783.44;;;7.19;92.34
6208;BME280;3137;51.550;7.060;2022-11-30T01:14:34;101785.25;;;7.18;92.87
6208;BME280;3137;51.550;7.060;2022-11-30T01:17:00;101785.94;;;7.23;92.28
6208;BME280;3137;51.550;7.060;2022-11-30T01:19:27;101787.91;;;7.18;92.66
6208;BME280;3137;51.550;7.060;2022-11-30T01:21:53;101790.81;;;7.12;92.29
6208;BME280;3137;51.550;7.060;2022-11-30T01:24:19;101792.81;;;7.07;92.27
6208;BME280;3137;51.550;7.060;2022-11-30T01:26:46;101795.59;;;7.04;92.87
6208;BME280;3137;51.550;7.060;2022-11-30T01:29:12;101803.50;;;7.06;92.69
6208;BME280;3137;51.550;7.060;2022-11-30T01:31:39;101799.97;;;7.05;92.46
6208;BME280;3137;51.550;7.060;2022-11-30T01:34:05;101807.28;;;7.00;92.41
6208;BME280;3137;51.550;7.060;2022-11-30T01:36:31;101805.63;;;6.97;92.25
6208;BME280;3137;51.550;7.060;2022-11-30T01:38:58;101803.19;;;6.91;92.43
6208;BME280;3137;51.550;7.060;2022-11-30T01:41:29;101805.03;;;6.89;92.05
6208;BME280;3137;51.550;7.060;2022-11-30T01:46:37;101802.31;;;6.91;91.81
6208;BME280;3137;51.550;7.060;2022-11-30T01:49:21;101804.31;;;6.86;91.97
6208;BME280;3137;51.550;7.060;2022-11-30T01:52:31;101807.94;;;6.83;92.22
6208;BME280;3137;51.550;7.060;2022-11-30T01:55:17;101811.53;;;6.82;92.16
6208;BME280;3137;51.550;7.060;2022-11-30T02:00:33;101829.59;;;6.74;91.67
6208;BME280;3137;51.550;7.060;2022-11-30T02:03:18;101833.47;;;6.65;91.93
6208;BME280;3137;51.550;7.060;2022-11-30T02:05:48;101833.63;;;6.60;91.78
6208;BME280;3137;51.550;7.060;2022-11-30T02:08:16;101839.25;;;6.53;91.75
6208;BME280;3137;51.550;7.060;2022-11-30T02:10:45;101838.34;;;6.54;91.73
6208;BME280;3137;51.550;7.060;2022-11-30T02:16:27;101842.94;;;6.49;91.46
6208;BME280;3137;51.550;7.060;2022-11-30T02:19:28;101837.75;;;6.46;91.65
6208;BME280;3137;51.550;7.060;2022-11-30T02:30:12;101828.38;;;6.35;91.51
6208;BME280;3137;51.550;7.060;2022-11-30T02:32:51;101822.28;;;6.32;91.47
6208;BME280;3137;51.550;7.060;2022-11-30T02:35:21;101820.66;;;6.28;91.16
6208;BME280;3137;51.550;7.060;2022-11-30T02:37:52;101822.41;;;6.29;91.37
6208;BME280;3137;51.550;7.060;2022-11-30T02:40:20;101815.34;;;6.28;91.26
6208;BME280;3137;51.550;7.060;2022-11-30T02:42:47;101815.41;;;6.26;91.25
6208;BME280;3137;51.550;7.060;2022-11-30T02:45:15;101819.78;;;6.27;91.24
6208;BME280;3137;51.550;7.060;2022-11-30T02:47:51;101816.25;;;6.27;91.52
6208;BME280;3137;51.550;7.060;2022-11-30T02:50:34;101819.84;;;6.26;91.05
6208;BME280;3137;51.550;7.060;2022-11-30T02:53:03;101821.75;;;6.22;91.41
6208;BME280;3137;51.550;7.060;2022-11-30T02:55:30;101827.84;;;6.26;91.13
6208;BME280;3137;51.550;7.060;2022-11-30T02:57:57;101819.00;;;6.25;91.15
6208;BME280;3137;51.550;7.060;2022-11-30T03:00:23;101824.63;;;6.16;91.06
6208;BME280;3137;51.550;7.060;2022-11-30T03:02:50;101828.91;;;6.20;91.35
6208;BME280;3137;51.550;7.060;2022-11-30T03:05:16;101826.19;;;6.22;91.13
6208;BME280;3137;51.550;7.060;2022-11-30T03:07:43;101828.03;;;6.20;91.21
6208;BME280;3137;51.550;7.060;2022-11-30T03:10:09;101820.88;;;6.22;90.83
6208;BME280;3137;51.550;7.060;2022-11-30T03:12:36;101824.69;;;6.14;90.96
6208;BME280;3137;51.550;7.060;2022-11-30T03:15:03;101822.88;;;6.15;90.79
6208;BME280;3137;51.550;7.060;2022-11-30T03:17:30;101822.13;;;6.11;91.15
6208;BME280;3137;51.550;7.060;2022-11-30T03:19:56;101826.47;;;6.14;90.96
6208;BME280;3137;51.550;7.060;2022-11-30T03:22:23;101824.72;;;6.13;91.23
6208;BME280;3137;51.550;7.060;2022-11-30T03:24:49;101829.09;;;6.15;90.84
6208;BME280;3137;51.550;7.060;2022-11-30T03:27:16;101823.84;;;6.12;91.01
6208;BME280;3137;51.550;7.060;2022-11-30T03:29:42;101823.00;;;6.12;91.02
6208;BME280;3137;51.550;7.060;2022-11-30T03:32:09;101830.97;;;6.12;91.11
6208;BME280;3137;51.550;7.060;2022-11-30T03:34:35;101831.09;;;6.09;90.71
6208;BME280;3137;51.550;7.060;2022-11-30T03:37:02;101823.00;;;6.12;90.51
6208;BME280;3137;51.550;7.060;2022-11-30T03:39:28;101830.16;;;6.10;90.54
6208;BME280;3137;51.550;7.060;2022-11-30T03:41:54;101825.69;;;6.10;90.81
6208;BME280;3137;51.550;7.060;2022-11-30T03:44:21;101837.44;;;6.05;90.95
6208;BME280;3137;51.550;7.060;2022-11-30T03:46:48;101833.91;;;6.04;90.80
6208;BME280;3137;51.550;7.060;2022-11-30T03:49:14;101834.66;;;6.08;90.73
6208;BME280;3137;51.550;7.060;2022-11-30T03:51:40;101839.97;;;6.08;90.48
6208;BME280;3137;51.550;7.060;2022-11-30T03:54:07;101841.03;;;6.04;90.55
6208;BME280;3137;51.550;7.060;2022-11-30T03:56:33;101831.38;;;6.01;90.41
6208;BME280;3137;51.550;7.060;2022-11-30T03:58:59;101841.34;;;5.93;89.91
6208;BME280;3137;51.550;7.060;2022-11-30T04:01:26;101844.81;;;5.96;89.97
6208;BME280;3137;51.550;7.060;2022-11-30T04:03:53;101842.78;;;6.03;89.82
6208;BME280;3137;51.550;7.060;2022-11-30T04:06:20;101838.56;;;5.97;89.83
6208;BME280;3137;51.550;7.060;2022-11-30T04:08:47;101842.91;;;6.00;89.50
6208;BME280;3137;51.550;7.060;2022-11-30T04:11:13;101846.59;;;5.96;89.63
6208;BME280;3137;51.550;7.060;2022-11-30T04:13:41;101851.88;;;5.97;89.61
6208;BME280;3137;51.550;7.060;2022-11-30T04:16:08;101852.72;;;5.98;89.38
6208;BME280;3137;51.550;7.060;2022-11-30T04:18:36;101847.53;;;5.95;89.49
6208;BME280;3137;51.550;7.060;2022-11-30T04:21:04;101854.56;;;5.96;89.00
6208;BME280;3137;51.550;7.060;2022-11-30T04:23:33;101850.03;;;6.00;88.66
6208;BME280;3137;51.550;7.060;2022-11-30T04:26:05;101855.38;;;5.98;88.79
6208;BME280;3137;51.550;7.060;2022-11-30T04:28:32;101849.00;;;6.04;88.75
6208;BME280;3137;51.550;7.060;2022-11-30T04:30:59;101845.53;;;6.02;88.43
6208;BME280;3137;51.550;7.060;2022-11-30T04:33:26;101847.41;;;5.98;88.23
6208;BME280;3137;51.550;7.060;2022-11-30T04:35:55;101850.97;;;5.99;88.35
6208;BME280;3137;51.550;7.060;2022-11-30T04:38:22;101851.00;;;5.97;88.33
6208;BME280;3137;51.550;7.060;2022-11-30T04:40:49;101853.44;;;6.03;88.36
6208;BME280;3137;51.550;7.060;2022-11-30T04:43:15;101849.09;;;6.01;88.17
6208;BME280;3137;51.550;7.060;2022-11-30T04:45:43;101849.16;;;5.99;88.41
6208;BME280;3137;51.550;7.060;2022-11-30T04:48:10;101853.63;;;5.99;88.10
6208;BME280;3137;51.550;7.060;2022-11-30T04:50:36;101855.22;;;6.03;88.11
6208;BME280;3137;51.550;7.060;2022-11-30T04:53:05;101857.97;;;6.01;88.17
6208;BME280;3137;51.550;7.060;2022-11-30T04:55:32;101857.03;;;6.02;88.44
6208;BME280;3137;51.550;7.060;2022-11-30T04:57:58;101860.63;;;6.01;88.14
6208;BME280;3137;51.550;7.060;2022-11-30T05:00:25;101865.81;;;6.04;88.03
6208;BME280;3137;51.550;7.060;2022-11-30T05:02:51;101864.19;;;6.00;87.90
6208;BME280;3137;51.550;7.060;2022-11-30T05:05:19;101867.50;;;6.07;87.39
6208;BME280;3137;51.550;7.060;2022-11-30T05:07:49;101856.91;;;6.05;87.87
6208;BME280;3137;51.550;7.060;2022-11-30T05:10:16;101870.97;;;6.09;87.59
6208;BME280;3137;51.550;7.060;2022-11-30T05:12:43;101871.13;;;6.04;87.56
6208;BME280;3137;51.550;7.060;2022-11-30T05:15:09;101867.53;;;6.05;87.45
6208;BME280;3137;51.550;7.060;2022-11-30T05:17:36;101876.50;;;6.03;87.54
6208;BME280;3137;51.550;7.060;2022-11-30T05:20:02;101874.66;;;6.05;87.51
6208;BME280;3137;51.550;7.060;2022-11-30T05:22:29;101872.94;;;6.04;87.55
6208;BME280;3137;51.550;7.060;2022-11-30T05:24:55;101878.25;;;6.04;87.57
6208;BME280;3137;51.550;7.060;2022-11-30T05:27:22;101873.84;;;6.03;87.73
6208;BME280;3137;51.550;7.060;2022-11-30T05:29:48;101871.09;;;6.06;87.53
6208;BME280;3137;51.550;7.060;2022-11-30T05:32:15;101880.81;;;6.07;87.58
6208;BME280;3137;51.550;7.060;2022-11-30T05:34:41;101872.81;;;6.07;87.62
6208;BME280;3137;51.550;7.060;2022-11-30T05:37:17;101878.13;;;6.07;87.44
6208;BME280;3137;51.550;7.060;2022-11-30T05:39:43;101879.81;;;6.09;87.43
6208;BME280;3137;51.550;7.060;2022-11-30T05:42:09;101874.63;;;6.06;87.54
6208;BME280;3137;51.550;7.060;2022-11-30T05:44:36;101876.31;;;6.09;87.67
6208;BME280;3137;51.550;7.060;2022-11-30T05:47:02;101876.31;;;6.09;87.54
6208;BME280;3137;51.550;7.060;2022-11-30T05:49:29;101876.03;;;6.16;86.94
6208;BME280;3137;51.550;7.060;2022-11-30T05:51:55;101873.81;;;6.04;87.13
6208;BME280;3137;51.550;7.060;2022-11-30T05:54:22;101875.63;;;6.02;87.33
6208;BME280;3137;51.550;7.060;2022-11-30T05:56:48;101875.69;;;6.01;87.40
6208;BME280;3137;51.550;7.060;2022-11-30T05:59:20;101877.38;;;6.03;87.34
6208;BME280;3137;51.550;7.060;2022-11-30T06:01:46;101881.13;;;5.97;87.59
6208;BME280;3137;51.550;7.060;2022-11-30T06:04:13;101889.03;;;5.99;87.78
6208;BME280;3137;51.550;7.060;2022-11-30T06:06:39;101889.91;;;6.00;87.77
6208;BME280;3137;51.550;7.060;2022-11-30T06:09:05;101885.41;;;6.02;87.75
6208;BME280;3137;51.550;7.060;2022-11-30T06:11:32;101892.38;;;6.06;87.55
6208;BME280;3137;51.550;7.060;2022-11-30T06:13:58;101893.31;;;6.03;87.78
6208;BME280;3137;51.550;7.060;2022-11-30T06:16:25;101895.22;;;6.00;87.81
6208;BME280;3137;51.550;7.060;2022-11-30T06:18:51;101892.69;;;5.96;87.98
6208;BME280;3137;51.550;7.060;2022-11-30T06:21:17;101897.06;;;5.97;88.14
6208;BME280;3137;51.550;7.060;2022-11-30T06:23:50;101891.56;;;6.04;87.72
6208;BME280;3137;51.550;7.060;2022-11-30T06:26:17;101883.63;;;6.02;87.67
6208;BME280;3137;51.550;7.060;2022-11-30T06:28:43;101885.41;;;6.02;87.68
6208;BME280;3137;51.550;7.060;2022-11-30T06:31:14;101885.53;;;5.99;88.00
6208;BME280;3137;51.550;7.060;2022-11-30T06:33:42;101893.53;;;5.97;88.18
6208;BME280;3137;51.550;7.060;2022-11-30T06:36:09;101888.22;;;5.97;88.08
6208;BME280;3137;51.550;7.060;2022-11-30T06:38:35;101891.75;;;5.97;88.14
6208;BME280;3137;51.550;7.060;2022-11-30T06:41:07;101888.97;;;6.01;88.11
6208;BME280;3137;51.550;7.060;2022-11-30T06:43:35;101887.22;;;6.01;88.17
6208;BME280;3137;51.550;7.060;2022-11-30T06:46:03;101884.59;;;6.00;87.97
6208;BME280;3137;51.550;7.060;2022-11-30T06:48:30;101894.25;;;6.02;88.19
6208;BME280;3137;51.550;7.060;2022-11-30T06:50:56;101895.25;;;5.98;87.99
6208;BME280;3137;51.550;7.060;2022-11-30T06:53:23;101902.38;;;5.97;88.38
6208;BME280;3137;51.550;7.060;2022-11-30T06:55:50;101898.91;;;5.95;88.27
6208;BME280;3137;51.550;7.060;2022-11-30T06:58:16;101892.59;;;5.98;88.19
6208;BME280;3137;51.550;7.060;2022-11-30T07:00:43;101899.75;;;5.96;87.96
6208;BME280;3137;51.550;7.060;2022-11-30T07:03:10;101900.72;;;5.93;88.15
6208;BME280;3137;51.550;7.060;2022-11-30T07:05:42;101907.75;;;5.96;88.08
6208;BME280;3137;51.550;7.060;2022-11-30T07:08:10;101907.75;;;5.96;88.38
6208;BME280;3137;51.550;7.060;2022-11-30T07:10:44;101894.28;;;6.01;88.05
6208;BME280;3137;51.550;7.060;2022-11-30T07:13:12;101901.41;;;6.00;88.12
6208;BME280;3137;51.550;7.060;2022-11-30T07:15:40;101914.78;;;5.99;88.12
6208;BME280;3137;51.550;7.060;2022-11-30T07:18:07;101914.78;;;5.99;88.06
6208;BME280;3137;51.550;7.060;2022-11-30T07:20:35;101912.91;;;6.01;88.42
6208;BME280;3137;51.550;7.060;2022-11-30T07:23:01;101912.91;;;6.01;88.00
6208;BME280;3137;51.550;7.060;2022-11-30T07:25:49;101911.19;;;6.00;88.32
6208;BME280;3137;51.550;7.060;2022-11-30T07:28:39;101907.44;;;6.05;87.93
6208;BME280;3137;51.550;7.060;2022-11-30T07:31:15;101911.06;;;6.03;87.79
6208;BME280;3137;51.550;7.060;2022-11-30T07:33:42;101919.19;;;5.98;88.08
6208;BME280;3137;51.550;7.060;2022-11-30T07:36:09;101913.13;;;5.94;88.43
6208;BME280;3137;51.550;7.060;2022-11-30T07:38:36;101922.78;;;5.97;88.38
6208;BME280;3137;51.550;7.060;2022-11-30T07:41:03;101924.38;;;6.03;88.39
6208;BME280;3137;51.550;7.060;2022-11-30T07:43:30;101933.31;;;6.00;88.47
6208;BME280;3137;51.550;7.060;2022-11-30T07:45:57;101930.66;;;6.00;88.52
6208;BME280;3137;51.550;7.060;2022-11-30T07:48:24;101931.38;;;6.05;87.96
6208;BME280;3137;51.550;7.060;2022-11-30T07:50:50;101942.25;;;5.97;88.37
6208;BME280;3137;51.550;7.060;2022-11-30T07:53:17;101937.94;;;5.93;88.67
6208;BME280;3137;51.550;7.060;2022-11-30T07:55:44;101939.66;;;5.96;88.67
6208;BME280;3137;51.550;7.060;2022-11-30T07:58:10;101941.38;;;5.99;88.62
6208;BME280;3137;51.550;7.060;2022-11-30T08:00:42;101945.84;;;5.96;88.56
6208;BME280;3137;51.550;7.060;2022-11-30T08:03:09;101945.78;;;5.98;88.62
6208;BME280;3137;51.550;7.060;2022-11-30T08:05:35;101948.44;;;5.98;88.99
6208;BME280;3137;51.550;7.060;2022-11-30T08:08:02;101949.34;;;5.99;88.93
6208;BME280;3137;51.550;7.060;2022-11-30T08:10:28;101943.91;;;6.02;88.74
6208;BME280;3137;51.550;7.060;2022-11-30T08:12:55;101953.75;;;5.98;88.70
6208;BME280;3137;51.550;7.060;2022-11-30T08:15:21;101962.63;;;5.99;88.96
6208;BME280;3137;51.550;7.060;2022-11-30T08:17:58;101961.59;;;6.03;88.84
6208;BME280;3137;51.550;7.060;2022-11-30T08:20:30;101958.03;;;6.04;88.81
6208;BME280;3137;51.550;7.060;2022-11-30T08:22:57;101964.19;;;6.06;88.61
6208;BME280;3137;51.550;7.060;2022-11-30T08:25:24;101969.31;;;6.10;88.38
6208;BME280;3137;51.550;7.060;2022-11-30T08:27:50;101962.22;;;6.11;88.27
6208;BME280;3137;51.550;7.060;2022-11-30T08:30:16;101972.91;;;6.09;88.25
6208;BME280;3137;51.550;7.060;2022-11-30T08:32:43;101969.50;;;6.06;88.83
6208;BME280;3137;51.550;7.060;2022-11-30T08:35:09;101971.97;;;6.10;88.60
6208;BME280;3137;51.550;7.060;2022-11-30T08:37:36;101971.97;;;6.10;88.46
6208;BME280;3137;51.550;7.060;2022-11-30T08:40:03;101978.06;;;6.14;88.29
6208;BME280;3137;51.550;7.060;2022-11-30T08:42:30;101978.13;;;6.12;88.35
6208;BME280;3137;51.550;7.060;2022-11-30T08:44:56;101987.88;;;6.12;88.48
6208;BME280;3137;51.550;7.060;2022-11-30T08:47:23;101988.75;;;6.12;88.31
6208;BME280;3137;51.550;7.060;2022-11-30T08:49:50;101984.28;;;6.13;88.17
6208;BME280;3137;51.550;7.060;2022-11-30T08:52:16;101993.88;;;6.18;88.04
6208;BME280;3137;51.550;7.060;2022-11-30T08:54:45;101990.56;;;6.12;87.97
6208;BME280;3137;51.550;7.060;2022-11-30T08:57:18;101992.34;;;6.11;87.99
6208;BME280;3137;51.550;7.060;2022-11-30T08:59:45;101994.03;;;6.14;88.16
6208;BME280;3137;51.550;7.060;2022-11-30T09:02:14;101997.56;;;6.14;88.16
6208;BME280;3137;51.550;7.060;2022-11-30T09:04:46;102003.66;;;6.18;88.37
6208;BME280;3137;51.550;7.060;2022-11-30T09:07:13;102006.31;;;6.18;88.39
6208;BME280;3137;51.550;7.060;2022-11-30T09:09:40;101999.91;;;6.24;88.27
6208;BME280;3137;51.550;7.060;2022-11-30T09:12:06;102014.19;;;6.21;88.17
6208;BME280;3137;51.550;7.060;2022-11-30T09:14:33;102013.31;;;6.21;88.48
6208;BME280;3137;51.550;7.060;2022-11-30T09:16:59;102008.97;;;6.18;88.13
6208;BME280;3137;51.550;7.060;2022-11-30T09:19:26;102014.91;;;6.26;88.28
6208;BME280;3137;51.550;7.060;2022-11-30T09:21:53;102011.38;;;6.26;88.56
6208;BME280;3137;51.550;7.060;2022-11-30T09:24:19;102009.63;;;6.25;87.81
6208;BME280;3137;51.550;7.060;2022-11-30T09:26:46;102008.72;;;6.26;88.27
6208;BME280;3137;51.550;7.060;2022-11-30T09:29:12;102005.94;;;6.29;88.02
6208;BME280;3137;51.550;7.060;2022-11-30T09:31:39;102009.47;;;6.29;87.87
6208;BME280;3137;51.550;7.060;2022-11-30T09:34:05;102013.03;;;6.30;87.95
6208;BME280;3137;51.550;7.060;2022-11-30T09:36:32;102015.69;;;6.30;88.00
6208;BME280;3137;51.550;7.060;2022-11-30T09:38:59;102015.50;;;6.34;87.77
6208;BME280;3137;51.550;7.060;2022-11-30T09:41:43;102012.78;;;6.37;88.00
6208;BME280;3137;51.550;7.060;2022-11-30T09:44:41;102013.75;;;6.35;87.87
6208;BME280;3137;51.550;7.060;2022-11-30T09:49:45;102009.16;;;6.38;87.51
6208;BME280;3137;51.550;7.060;2022-11-30T09:52:24;102010.00;;;6.41;88.03
6208;BME280;3137;51.550;7.060;2022-11-30T09:54:51;102002.13;;;6.37;87.94
6208;BME280;3137;51.550;7.060;2022-11-30T09:57:43;102005.50;;;6.43;87.61
6208;BME280;3137;51.550;7.060;2022-11-30T10:00:16;102005.47;;;6.44;87.73
6208;BME280;3137;51.550;7.060;2022-11-30T10:02:44;101993.00;;;6.45;87.48
6208;BME280;3137;51.550;7.060;2022-11-30T10:05:21;102000.94;;;6.46;87.36
6208;BME280;3137;51.550;7.060;2022-11-30T10:16:30;102000.84;;;6.49;87.07
6208;BME280;3137;51.550;7.060;2022-11-30T10:21:58;102002.44;;;6.53;86.96
6208;BME280;3137;51.550;7.060;2022-11-30T10:27:16;101988.28;;;6.53;87.14
6208;BME280;3137;51.550;7.060;2022-11-30T10:29:43;101990.03;;;6.54;86.96
6208;BME280;3137;51.550;7.060;2022-11-30T10:32:25;101987.41;;;6.52;86.64
6208;BME280;3137;51.550;7.060;2022-11-30T10:34:59;101995.69;;;6.45;87.00
6208;BME280;3137;51.550;7.060;2022-11-30T10:37:35;101984.66;;;6.55;86.55
6208;BME280;3137;51.550;7.060;2022-11-30T10:40:12;101999.75;;;6.55;86.63
6208;BME280;3137;51.550;7.060;2022-11-30T10:42:44;101998.03;;;6.54;86.39
6208;BME280;3137;51.550;7.060;2022-11-30T10:45:20;101996.22;;;6.54;86.65
6208;BME280;3137;51.550;7.060;2022-11-30T10:48:11;101988.28;;;6.53;86.57
6208;BME280;3137;51.550;7.060;2022-11-30T10:50:40;101996.28;;;6.53;86.38
6208;BME280;3137;51.550;7.060;2022-11-30T10:53:11;101994.63;;;6.49;86.31
6208;BME280;3137;51.550;7.060;2022-11-30T10:55:41;101982.97;;;6.53;85.95
6208;BME280;3137;51.550;7.060;2022-11-30T10:58:30;101991.16;;;6.47;86.19
6208;BME280;3137;51.550;7.060;2022-11-30T11:01:05;101996.66;;;6.42;86.22
6208;BME280;3137;51.550;7.060;2022-11-30T11:03:32;101989.53;;;6.43;86.28
6208;BME280;3137;51.550;7.060;2022-11-30T11:06:21;101982.22;;;6.49;86.40
6208;BME280;3137;51.550;7.060;2022-11-30T11:08:49;101989.31;;;6.49;86.31
6208;BME280;3137;51.550;7.060;2022-11-30T11:11:27;101989.31;;;6.49;86.30
6208;BME280;3137;51.550;7.060;2022-11-30T11:14:08;101985.75;;;6.50;86.45
6208;BME280;3137;51.550;7.060;2022-11-30T11:17:02;101985.75;;;6.50;86.27
6208;BME280;3137;51.550;7.060;2022-11-30T11:19:38;101979.41;;;6.54;86.48
6208;BME280;3137;51.550;7.060;2022-11-30T11:22:25;101972.97;;;6.59;86.43
6208;BME280;3137;51.550;7.060;2022-11-30T11:24:55;101987.97;;;6.62;86.29
6208;BME280;3137;51.550;7.060;2022-11-30T11:27:33;101979.25;;;6.58;86.04
6208;BME280;3137;51.550;7.060;2022-11-30T11:35:38;101989.16;;;6.53;84.83
6208;BME280;3137;51.550;7.060;2022-11-30T11:38:29;101985.63;;;6.53;85.45
6208;BME280;3137;51.550;7.060;2022-11-30T11:41:10;101997.19;;;6.52;85.30
6208;BME280;3137;51.550;7.060;2022-11-30T11:44:05;101990.28;;;6.46;85.57
6208;BME280;3137;51.550;7.060;2022-11-30T11:49:25;101989.00;;;6.58;85.04
6208;BME280;3137;51.550;7.060;2022-11-30T11:52:13;101998.88;;;6.54;85.06
6208;BME280;3137;51.550;7.060;2022-11-30T11:54:56;101989.09;;;6.55;85.22
6208;BME280;3137;51.550;7.060;2022-11-30T11:57:39;101999.75;;;6.55;85.25
6208;BME280;3137;51.550;7.060;2022-11-30T12:03:03;101989.88;;;6.58;85.45
6208;BME280;3137;51.550;7.060;2022-11-30T12:05:43;101999.47;;;6.63;84.86
6208;BME280;3137;51.550;7.060;2022-11-30T12:08:17;101999.31;;;6.67;85.09
6208;BME280;3137;51.550;7.060;2022-11-30T12:10:59;101990.44;;;6.68;85.12
6208;BME280;3137;51.550;7.060;2022-11-30T12:13:41;101996.78;;;6.64;84.83
6208;BME280;3137;51.550;7.060;2022-11-30T12:27:20;102002.41;;;6.55;84.78
6208;BME280;3137;51.550;7.060;2022-11-30T12:30:02;101996.09;;;6.57;84.54
6208;BME280;3137;51.550;7.060;2022-11-30T12:35:49;102005.91;;;6.57;84.41
6208;BME280;3137;51.550;7.060;2022-11-30T12:38:28;102008.72;;;6.52;84.70
6208;BME280;3137;51.550;7.060;2022-11-30T12:41:04;102007.03;;;6.50;84.65
6208;BME280;3137;51.550;7.060;2022-11-30T12:52:02;102015.75;;;6.53;84.54
6208;BME280;3137;51.550;7.060;2022-11-30T12:54:55;102021.22;;;6.49;84.67
6208;BME280;3137;51.550;7.060;2022-11-30T12:57:35;102013.25;;;6.49;84.65
6208;BME280;3137;51.550;7.060;2022-11-30T13:00:22;102008.00;;;6.47;84.80
6208;BME280;3137;51.550;7.060;2022-11-30T13:05:41;102022.28;;;6.45;84.95
6208;BME280;3137;51.550;7.060;2022-11-30T13:10:46;102017.66;;;6.50;84.40
6208;BME280;3137;51.550;7.060;2022-11-30T13:13:23;102027.69;;;6.42;84.27
6208;BME280;3137;51.550;7.060;2022-11-30T13:15:51;102031.41;;;6.37;84.60
6208;BME280;3137;51.550;7.060;2022-11-30T13:18:21;102026.63;;;6.47;84.56
6208;BME280;3137;51.550;7.060;2022-11-30T13:23:30;102021.31;;;6.47;84.05
6208;BME280;3137;51.550;7.060;2022-11-30T13:28:53;102023.00;;;6.50;84.50
6208;BME280;3137;51.550;7.060;2022-11-30T13:31:28;102026.63;;;6.47;84.79
6208;BME280;3137;51.550;7.060;2022-11-30T13:33:59;102019.56;;;6.46;84.92
6208;BME280;3137;51.550;7.060;2022-11-30T13:36:40;102020.38;;;6.48;84.75
6208;BME280;3137;51.550;7.060;2022-11-30T13:41:41;102022.13;;;6.49;84.48
6208;BME280;3137;51.550;7.060;2022-11-30T13:44:37;102019.47;;;6.49;84.74
6208;BME280;3137;51.550;7.060;2022-11-30T13:47:15;102019.41;;;6.51;84.15
6208;BME280;3137;51.550;7.060;2022-11-30T13:49:43;102017.63;;;6.51;84.80
6208;BME280;3137;51.550;7.060;2022-11-30T13:52:12;102018.56;;;6.49;84.20
6208;BME280;3137;51.550;7.060;2022-11-30T13:54:49;102022.13;;;6.49;84.23
6208;BME280;3137;51.550;7.060;2022-11-30T14:05:46;102032.81;;;6.48;84.08
6208;BME280;3137;51.550;7.060;2022-11-30T14:10:53;102035.47;;;6.48;84.69
6208;BME280;3137;51.550;7.060;2022-11-30T14:13:29;102030.13;;;6.49;84.63
6208;BME280;3137;51.550;7.060;2022-11-30T14:16:00;102031.09;;;6.47;84.48
6208;BME280;3137;51.550;7.060;2022-11-30T14:18:36;102038.28;;;6.43;84.70
6208;BME280;3137;51.550;7.060;2022-11-30T14:21:39;102035.66;;;6.42;85.05
6208;BME280;3137;51.550;7.060;2022-11-30T14:24:20;102044.53;;;6.42;84.85
6208;BME280;3137;51.550;7.060;2022-11-30T14:26:49;102040.13;;;6.41;85.16
6208;BME280;3137;51.550;7.060;2022-11-30T14:29:18;102039.97;;;6.46;85.12
6208;BME280;3137;51.550;7.060;2022-11-30T14:34:16;102040.09;;;6.43;84.80
6208;BME280;3137;51.550;7.060;2022-11-30T14:36:52;102048.09;;;6.41;84.91
6208;BME280;3137;51.550;7.060;2022-11-30T14:39:23;102052.56;;;6.41;84.76
6208;BME280;3137;51.550;7.060;2022-11-30T14:41:50;102050.72;;;6.43;84.80
6208;BME280;3137;51.550;7.060;2022-11-30T14:44:17;102048.91;;;6.45;84.18
6208;BME280;3137;51.550;7.060;2022-11-30T14:46:44;102049.91;;;6.41;84.74
6208;BME280;3137;51.550;7.060;2022-11-30T14:49:17;102058.91;;;6.36;84.52
6208;BME280;3137;51.550;7.060;2022-11-30T14:51:52;102051.81;;;6.37;84.42
6208;BME280;3137;51.550;7.060;2022-11-30T14:54:32;102058.88;;;6.38;84.34
6208;BME280;3137;51.550;7.060;2022-11-30T14:57:07;102061.78;;;6.30;84.57
6208;BME280;3137;51.550;7.060;2022-11-30T14:59:51;102059.19;;;6.27;84.62
6208;BME280;3137;51.550;7.060;2022-11-30T15:02:27;102059.28;;;6.26;84.98
6208;BME280;3137;51.550;7.060;2022-11-30T15:04:55;102056.53;;;6.27;85.05
6208;BME280;3137;51.550;7.060;2022-11-30T15:07:24;102061.00;;;6.27;85.23
6208;BME280;3137;51.550;7.060;2022-11-30T15:09:59;102052.19;;;6.25;85.01
6208;BME280;3137;51.550;7.060;2022-11-30T15:12:26;102052.81;;;6.33;84.68
6208;BME280;3137;51.550;7.060;2022-11-30T15:15:26;102056.50;;;6.29;84.55